createdAt,value
2016-09-05T00:00:17.366Z,0
2016-09-05T00:01:16.609Z,0
2016-09-05T00:02:18.160Z,0
2016-09-05T00:03:15.851Z,0
2016-09-05T00:04:17.263Z,0
2016-09-05T00:05:17.996Z,0
2016-09-05T00:06:17.234Z,0
2016-09-05T00:07:17.234Z,0
2016-09-05T00:08:16.513Z,0
2016-09-05T00:09:16.474Z,0
2016-09-05T00:10:17.912Z,0
2016-09-05T00:11:16.442Z,0
2016-09-05T00:12:17.899Z,0
2016-09-05T00:13:16.429Z,0
2016-09-05T00:14:16.416Z,0
2016-09-05T00:15:16.397Z,0
2016-09-05T00:16:17.095Z,0
2016-09-05T00:17:17.095Z,0
2016-09-05T00:18:17.083Z,0
2016-09-05T00:19:17.780Z,0
2016-09-05T00:20:17.071Z,0
2016-09-05T00:21:17.749Z,0
2016-09-05T00:22:17.739Z,0
2016-09-05T00:23:16.279Z,0
2016-09-05T00:24:17.709Z,0
2016-09-05T00:25:16.257Z,0
2016-09-05T00:26:17.677Z,0
2016-09-05T00:27:17.667Z,0
2016-09-05T00:28:17.636Z,0
2016-09-05T00:29:16.974Z,0
2016-09-05T00:30:17.666Z,0
2016-09-05T00:31:17.608Z,0
2016-09-05T00:32:17.585Z,0
2016-09-05T00:33:16.841Z,0
2016-09-05T00:34:17.609Z,0
2016-09-05T00:35:17.550Z,0
2016-09-05T00:36:17.529Z,0
2016-09-05T00:37:17.539Z,0
2016-09-05T00:38:17.506Z,0
2016-09-05T00:39:16.780Z,0
2016-09-05T00:40:17.465Z,0
2016-09-05T00:41:16.758Z,0
2016-09-05T00:42:17.445Z,0
2016-09-05T00:43:16.017Z,0
2016-09-05T00:44:17.499Z,0
2016-09-05T00:45:17.410Z,0
2016-09-05T00:46:17.493Z,0
2016-09-05T00:47:15.230Z,0
2016-09-05T00:48:15.919Z,0
2016-09-05T00:49:17.329Z,0
2016-09-05T00:50:17.328Z,0
2016-09-05T00:51:17.320Z,0
2016-09-05T00:52:15.889Z,0
2016-09-05T00:53:17.296Z,0
2016-09-05T00:54:17.289Z,0
2016-09-05T00:55:16.655Z,0
2016-09-05T00:56:17.257Z,0
2016-09-05T00:57:17.222Z,0
2016-09-05T00:58:17.202Z,0
2016-09-05T00:59:17.193Z,0
2016-09-05T01:00:15.747Z,0
2016-09-05T01:01:16.458Z,0
2016-09-05T01:02:16.433Z,0
2016-09-05T01:03:17.139Z,0
2016-09-05T01:04:17.128Z,0
2016-09-05T01:05:16.436Z,0
2016-09-05T01:06:16.388Z,0
2016-09-05T01:07:16.420Z,0
2016-09-05T01:08:17.077Z,0
2016-09-05T01:09:17.043Z,0
2016-09-05T01:10:16.330Z,0
2016-09-05T01:11:16.310Z,0
2016-09-05T01:12:17.006Z,0
2016-09-05T01:13:17.007Z,0
2016-09-05T01:14:16.981Z,0
2016-09-05T01:15:16.968Z,0
2016-09-05T01:16:16.956Z,0
2016-09-05T01:17:16.934Z,0
2016-09-05T01:18:16.928Z,0
2016-09-05T01:19:16.230Z,0
2016-09-05T01:20:16.179Z,0
2016-09-05T01:21:16.952Z,0
2016-09-05T01:22:16.217Z,0
2016-09-05T01:23:16.850Z,0
2016-09-05T01:24:16.193Z,0
2016-09-05T01:25:16.175Z,0
2016-09-05T01:26:16.086Z,0
2016-09-05T01:27:16.859Z,0
2016-09-05T01:28:16.785Z,0
2016-09-05T01:29:16.848Z,0
2016-09-05T01:30:16.750Z,0
2016-09-05T01:31:16.763Z,0
2016-09-05T01:32:16.716Z,0
2016-09-05T01:33:16.717Z,0
2016-09-05T01:34:15.327Z,0
2016-09-05T01:35:15.990Z,0
2016-09-05T01:36:16.657Z,0
2016-09-05T01:37:16.643Z,0
2016-09-05T01:38:15.936Z,0
2016-09-05T01:39:16.759Z,0
2016-09-05T01:40:16.613Z,0
2016-09-05T01:41:16.646Z,0
2016-09-05T01:42:15.204Z,0
2016-09-05T01:43:15.130Z,0
2016-09-05T01:44:15.845Z,0
2016-09-05T01:45:16.567Z,0
2016-09-05T01:46:15.114Z,0
2016-09-05T01:47:16.569Z,0
2016-09-05T01:48:15.070Z,0
2016-09-05T01:49:16.481Z,0
2016-09-05T01:50:16.448Z,0
2016-09-05T01:51:15.760Z,0
2016-09-05T01:52:16.439Z,0
2016-09-05T01:53:14.255Z,0
2016-09-05T01:54:14.973Z,0
2016-09-05T01:55:15.690Z,0
2016-09-05T01:56:16.367Z,0
2016-09-05T01:57:15.648Z,0
2016-09-05T01:58:15.618Z,0
2016-09-05T01:59:16.370Z,0
2016-09-05T02:00:16.325Z,0
2016-09-05T02:01:15.588Z,0
2016-09-05T02:02:16.287Z,0
2016-09-05T02:03:16.327Z,0
2016-09-05T02:04:16.278Z,0
2016-09-05T02:05:15.601Z,0
2016-09-05T02:06:16.259Z,0
2016-09-05T02:07:14.787Z,0
2016-09-05T02:08:16.178Z,0
2016-09-05T02:09:15.471Z,0
2016-09-05T02:10:14.807Z,0
2016-09-05T02:11:16.201Z,0
2016-09-05T02:12:15.430Z,0
2016-09-05T02:13:15.477Z,0
2016-09-05T02:14:14.671Z,0
2016-09-05T02:15:16.120Z,0
2016-09-05T02:16:15.358Z,0
2016-09-05T02:17:16.068Z,0
2016-09-05T02:18:15.367Z,0
2016-09-05T02:19:15.308Z,0
2016-09-05T02:20:15.307Z,0
2016-09-05T02:21:16.014Z,0
2016-09-05T02:22:15.982Z,0
2016-09-05T02:23:15.269Z,0
2016-09-05T02:24:15.308Z,0
2016-09-05T02:25:15.238Z,0
2016-09-05T02:26:15.309Z,0
2016-09-05T02:27:15.920Z,0
2016-09-05T02:28:15.900Z,0
2016-09-05T02:29:15.197Z,0
2016-09-05T02:30:15.890Z,0
2016-09-05T02:31:15.139Z,0
2016-09-05T02:32:15.860Z,0
2016-09-05T02:33:15.837Z,0
2016-09-05T02:34:15.111Z,0
2016-09-05T02:35:15.787Z,0
2016-09-05T02:36:15.785Z,0
2016-09-05T02:37:15.835Z,0
2016-09-05T02:38:15.039Z,0
2016-09-05T02:39:15.731Z,0
2016-09-05T02:40:15.021Z,0
2016-09-05T02:41:15.724Z,0
2016-09-05T02:42:15.696Z,0
2016-09-05T02:43:14.988Z,0
2016-09-05T02:44:15.665Z,0
2016-09-05T02:45:15.650Z,0
2016-09-05T02:46:14.940Z,0
2016-09-05T02:47:14.914Z,0
2016-09-05T02:48:15.603Z,0
2016-09-05T02:49:15.619Z,0
2016-09-05T02:50:14.971Z,0
2016-09-05T02:51:15.605Z,0
2016-09-05T02:52:15.570Z,0
2016-09-05T02:53:15.530Z,0
2016-09-05T02:54:14.829Z,0
2016-09-05T02:55:15.520Z,0
2016-09-05T02:56:15.490Z,0
2016-09-05T02:57:14.778Z,0
2016-09-05T02:58:15.458Z,0
2016-09-05T02:59:14.740Z,0
2016-09-05T03:00:15.524Z,0
2016-09-05T03:01:15.426Z,0
2016-09-05T03:02:15.450Z,0
2016-09-05T03:03:14.680Z,0
2016-09-05T03:04:14.659Z,0
2016-09-05T03:05:15.411Z,0
2016-09-05T03:06:15.346Z,0
2016-09-05T03:07:14.634Z,0
2016-09-05T03:08:15.390Z,0
2016-09-05T03:09:15.318Z,0
2016-09-05T03:10:15.288Z,0
2016-09-05T03:11:15.260Z,0
2016-09-05T03:12:14.550Z,0
2016-09-05T03:13:15.240Z,0
2016-09-05T03:14:15.305Z,0
2016-09-05T03:15:14.490Z,0
2016-09-05T03:16:15.210Z,0
2016-09-05T03:17:15.189Z,0
2016-09-05T03:18:14.490Z,0
2016-09-05T03:19:15.146Z,0
2016-09-05T03:20:15.147Z,0
2016-09-05T03:21:15.123Z,0
2016-09-05T03:22:15.148Z,0
2016-09-05T03:23:13.677Z,0
2016-09-05T03:24:15.080Z,0
2016-09-05T03:25:13.644Z,0
2016-09-05T03:26:13.645Z,0
2016-09-05T03:27:13.690Z,0
2016-09-05T03:28:15.018Z,0
2016-09-05T03:29:15.011Z,0
2016-09-05T03:30:15.007Z,0
2016-09-05T03:31:14.270Z,0
2016-09-05T03:32:14.985Z,0
2016-09-05T03:33:14.229Z,0
2016-09-05T03:34:14.968Z,0
2016-09-05T03:35:14.935Z,0
2016-09-05T03:36:14.896Z,0
2016-09-05T03:37:14.180Z,0
2016-09-05T03:38:13.454Z,0
2016-09-05T03:39:14.877Z,0
2016-09-05T03:40:14.140Z,0
2016-09-05T03:41:14.846Z,0
2016-09-05T03:42:14.818Z,0
2016-09-05T03:43:14.795Z,0
2016-09-05T03:44:14.781Z,0
2016-09-05T03:45:14.077Z,0
2016-09-05T03:46:14.049Z,0
2016-09-05T03:47:14.739Z,0
2016-09-05T03:48:14.735Z,0
2016-09-05T03:49:14.068Z,0
2016-09-05T03:50:14.749Z,0
2016-09-05T03:51:14.676Z,0
2016-09-05T03:52:14.729Z,0
2016-09-05T03:53:13.950Z,0
2016-09-05T03:54:14.650Z,0
2016-09-05T03:55:14.631Z,0
2016-09-05T03:56:14.641Z,0
2016-09-05T03:57:13.897Z,0
2016-09-05T03:58:14.597Z,0
2016-09-05T03:59:13.857Z,0
2016-09-05T04:00:13.830Z,0
2016-09-05T04:01:14.534Z,0
2016-09-05T04:02:13.106Z,0
2016-09-05T04:03:14.520Z,0
2016-09-05T04:04:14.510Z,0
2016-09-05T04:05:13.118Z,0
2016-09-05T04:06:14.467Z,0
2016-09-05T04:07:14.457Z,0
2016-09-05T04:08:13.750Z,0
2016-09-05T04:09:13.704Z,0
2016-09-05T04:10:13.707Z,0
2016-09-05T04:11:13.685Z,0
2016-09-05T04:12:14.377Z,0
2016-09-05T04:13:14.360Z,0
2016-09-05T04:14:14.410Z,0
2016-09-05T04:15:12.918Z,0
2016-09-05T04:16:13.721Z,0
2016-09-05T04:17:13.580Z,0
2016-09-05T04:18:13.589Z,0
2016-09-05T04:19:13.559Z,0
2016-09-05T04:20:14.257Z,0
2016-09-05T04:21:14.260Z,0
2016-09-05T04:22:14.289Z,0
2016-09-05T04:23:13.509Z,0
2016-09-05T04:24:14.206Z,0
2016-09-05T04:25:14.190Z,0
2016-09-05T04:26:12.750Z,0
2016-09-05T04:27:13.448Z,0
2016-09-05T04:28:13.444Z,0
2016-09-05T04:29:14.121Z,0
2016-09-05T04:30:14.138Z,0
2016-09-05T04:31:14.090Z,0
2016-09-05T04:32:14.130Z,0
2016-09-05T04:33:13.368Z,0
2016-09-05T04:34:14.140Z,0
2016-09-05T04:35:13.345Z,0
2016-09-05T04:36:13.395Z,0
2016-09-05T04:37:14.018Z,0
2016-09-05T04:38:13.984Z,0
2016-09-05T04:39:13.987Z,0
2016-09-05T04:40:13.266Z,0
2016-09-05T04:41:13.971Z,0
2016-09-05T04:42:12.510Z,0
2016-09-05T04:43:13.924Z,0
2016-09-05T04:44:12.490Z,0
2016-09-05T04:45:13.169Z,0
2016-09-05T04:46:13.869Z,0
2016-09-05T04:47:14.360Z,0
2016-09-05T04:48:13.870Z,0
2016-09-05T04:49:13.840Z,0
2016-09-05T04:50:13.818Z,0
2016-09-05T04:51:12.393Z,0
2016-09-05T04:52:13.071Z,0
2016-09-05T04:53:13.069Z,0
2016-09-05T04:54:12.335Z,0
2016-09-05T04:55:13.747Z,0
2016-09-05T04:56:13.716Z,0
2016-09-05T04:57:13.021Z,0
2016-09-05T04:58:13.715Z,0
2016-09-05T04:59:13.737Z,0
2016-09-05T05:00:13.671Z,0
2016-09-05T05:01:12.967Z,0
2016-09-05T05:02:12.950Z,0
2016-09-05T05:03:12.982Z,0
2016-09-05T05:04:12.906Z,0
2016-09-05T05:05:11.465Z,0
2016-09-05T05:06:12.867Z,0
2016-09-05T05:07:12.189Z,0
2016-09-05T05:08:11.457Z,0
2016-09-05T05:09:12.116Z,0
2016-09-05T05:10:12.890Z,0
2016-09-05T05:11:12.922Z,0
2016-09-05T05:12:12.790Z,0
2016-09-05T05:13:12.770Z,5
2016-09-05T05:14:12.753Z,5
2016-09-05T05:15:12.756Z,0
2016-09-05T05:16:12.735Z,0
2016-09-05T05:17:13.499Z,0
2016-09-05T05:18:13.417Z,0
2016-09-05T05:19:13.482Z,5
2016-09-05T05:20:11.960Z,5
2016-09-05T05:21:13.455Z,5
2016-09-05T05:22:13.357Z,5
2016-09-05T05:23:11.968Z,5
2016-09-05T05:24:12.598Z,5
2016-09-05T05:25:13.375Z,5
2016-09-05T05:26:13.291Z,10
2016-09-05T05:27:13.290Z,10
2016-09-05T05:28:12.548Z,10
2016-09-05T05:29:12.536Z,10
2016-09-05T05:30:13.239Z,10
2016-09-05T05:31:13.262Z,10
2016-09-05T05:32:12.482Z,15
2016-09-05T05:33:11.771Z,15
2016-09-05T05:34:12.466Z,10
2016-09-05T05:35:12.507Z,15
2016-09-05T05:36:13.151Z,10
2016-09-05T05:37:11.019Z,15
2016-09-05T05:38:13.116Z,15
2016-09-05T05:39:11.678Z,15
2016-09-05T05:40:13.097Z,20
2016-09-05T05:41:12.358Z,20
2016-09-05T05:42:12.351Z,20
2016-09-05T05:43:11.613Z,20
2016-09-05T05:44:12.314Z,15
2016-09-05T05:45:12.345Z,15
2016-09-05T05:46:13.014Z,15
2016-09-05T05:47:12.986Z,15
2016-09-05T05:48:12.970Z,15
2016-09-05T05:49:11.531Z,15
2016-09-05T05:50:12.216Z,20
2016-09-05T05:51:12.937Z,20
2016-09-05T05:52:12.935Z,20
2016-09-05T05:53:10.767Z,20
2016-09-05T05:54:12.160Z,15
2016-09-05T05:55:12.152Z,15
2016-09-05T05:56:12.137Z,20
2016-09-05T05:57:12.130Z,25
2016-09-05T05:58:11.481Z,30
2016-09-05T05:59:12.825Z,35
2016-09-05T06:00:12.251Z,35
2016-09-05T06:01:12.783Z,35
2016-09-05T06:02:12.071Z,40
2016-09-05T06:03:12.760Z,35
2016-09-05T06:04:12.029Z,35
2016-09-05T06:05:12.737Z,40
2016-09-05T06:06:11.997Z,55
2016-09-05T06:07:12.699Z,55
2016-09-05T06:08:12.698Z,50
2016-09-05T06:09:11.960Z,40
2016-09-05T06:10:12.659Z,35
2016-09-05T06:11:12.656Z,35
2016-09-05T06:12:11.908Z,40
2016-09-05T06:13:10.485Z,40
2016-09-05T06:14:11.190Z,45
2016-09-05T06:15:12.611Z,55
2016-09-05T06:16:11.139Z,50
2016-09-05T06:17:11.839Z,45
2016-09-05T06:18:12.563Z,45
2016-09-05T06:19:12.516Z,35
2016-09-05T06:20:12.514Z,35
2016-09-05T06:21:12.521Z,30
2016-09-05T06:22:11.777Z,25
2016-09-05T06:23:11.773Z,25
2016-09-05T06:24:10.321Z,20
2016-09-05T06:25:11.747Z,20
2016-09-05T06:26:12.436Z,20
2016-09-05T06:27:11.696Z,20
2016-09-05T06:28:11.707Z,20
2016-09-05T06:29:11.657Z,25
2016-09-05T06:30:10.311Z,25
2016-09-05T06:31:12.362Z,30
2016-09-05T06:32:12.339Z,35
2016-09-05T06:33:12.330Z,35
2016-09-05T06:34:12.315Z,40
2016-09-05T06:35:12.315Z,45
2016-09-05T06:36:11.570Z,45
2016-09-05T06:37:10.858Z,60
2016-09-05T06:38:10.852Z,70
2016-09-05T06:39:11.530Z,80
2016-09-05T06:40:10.809Z,105
2016-09-05T06:41:12.221Z,105
2016-09-05T06:42:12.202Z,120
2016-09-05T06:43:12.216Z,135
2016-09-05T06:44:11.478Z,125
2016-09-05T06:45:11.435Z,140
2016-09-05T06:46:10.728Z,140
2016-09-05T06:47:11.414Z,150
2016-09-05T06:48:11.436Z,165
2016-09-05T06:49:12.105Z,140
2016-09-05T06:50:11.407Z,140
2016-09-05T06:51:09.941Z,155
2016-09-05T06:52:11.380Z,170
2016-09-05T06:53:10.627Z,170
2016-09-05T06:54:12.046Z,170
2016-09-05T06:55:11.326Z,195
2016-09-05T06:56:09.869Z,180
2016-09-05T06:57:11.304Z,155
2016-09-05T06:58:11.293Z,150
2016-09-05T06:59:09.826Z,210
2016-09-05T07:00:10.538Z,655
2016-09-05T07:01:11.229Z,1140
2016-09-05T07:02:11.247Z,1290
2016-09-05T07:03:11.217Z,1215
2016-09-05T07:04:11.939Z,1305
2016-09-05T07:05:11.913Z,1300
2016-09-05T07:06:10.478Z,1330
2016-09-05T07:07:11.903Z,1380
2016-09-05T07:08:10.458Z,1380
2016-09-05T07:09:11.887Z,1175
2016-09-05T07:10:11.915Z,670
2016-09-05T07:11:11.137Z,1375
2016-09-05T07:12:11.841Z,575
2016-09-05T07:13:11.133Z,425
2016-09-05T07:14:11.126Z,280
2016-09-05T07:15:11.832Z,305
2016-09-05T07:16:10.378Z,245
2016-09-05T07:17:11.090Z,240
2016-09-05T07:18:11.831Z,190
2016-09-05T07:19:11.090Z,135
2016-09-05T07:20:11.799Z,110
2016-09-05T07:21:11.060Z,95
2016-09-05T07:22:11.045Z,100
2016-09-05T07:23:11.738Z,120
2016-09-05T07:24:11.731Z,170
2016-09-05T07:25:11.746Z,180
2016-09-05T07:26:11.718Z,270
2016-09-05T07:27:10.277Z,305
2016-09-05T07:28:10.279Z,240
2016-09-05T07:29:10.998Z,230
2016-09-05T07:30:10.965Z,225
2016-09-05T07:31:10.248Z,230
2016-09-05T07:32:11.659Z,250
2016-09-05T07:33:10.941Z,270
2016-09-05T07:34:10.928Z,250
2016-09-05T07:35:11.634Z,160
2016-09-05T07:36:10.201Z,135
2016-09-05T07:37:11.621Z,205
2016-09-05T07:38:10.879Z,205
2016-09-05T07:39:10.893Z,300
2016-09-05T07:40:10.148Z,730
2016-09-05T07:41:10.936Z,1215
2016-09-05T07:42:11.573Z,1335
2016-09-05T07:43:09.443Z,855
2016-09-05T07:44:10.838Z,210
2016-09-05T07:45:09.389Z,225
2016-09-05T07:46:10.811Z,475
2016-09-05T07:47:10.838Z,210
2016-09-05T07:48:11.526Z,185
2016-09-05T07:49:09.419Z,225
2016-09-05T07:50:10.786Z,265
2016-09-05T07:51:10.781Z,275
2016-09-05T07:52:10.778Z,180
2016-09-05T07:53:10.040Z,145
2016-09-05T07:54:10.051Z,175
2016-09-05T07:55:10.009Z,175
2016-09-05T07:56:11.467Z,230
2016-09-05T07:57:09.267Z,255
2016-09-05T07:58:10.691Z,555
2016-09-05T07:59:11.406Z,915
2016-09-05T08:00:10.688Z,540
2016-09-05T08:01:11.430Z,870
2016-09-05T08:02:11.372Z,570
2016-09-05T08:03:11.381Z,310
2016-09-05T08:04:11.366Z,325
2016-09-05T08:05:09.931Z,495
2016-09-05T08:06:11.368Z,440
2016-09-05T08:07:11.374Z,460
2016-09-05T08:08:11.352Z,240
2016-09-05T08:09:11.408Z,200
2016-09-05T08:10:10.622Z,170
2016-09-05T08:11:11.324Z,135
2016-09-05T08:12:11.303Z,120
2016-09-05T08:13:10.564Z,110
2016-09-05T08:14:09.889Z,105
2016-09-05T08:15:10.548Z,105
2016-09-05T08:16:11.249Z,95
2016-09-05T08:17:09.834Z,90
2016-09-05T08:18:10.529Z,105
2016-09-05T08:19:11.248Z,125
2016-09-05T08:20:11.211Z,130
2016-09-05T08:21:10.487Z,130
2016-09-05T08:22:11.281Z,125
2016-09-05T08:23:10.477Z,125
2016-09-05T08:24:10.512Z,125
2016-09-05T08:25:11.207Z,135
2016-09-05T08:26:11.149Z,255
2016-09-05T08:27:10.431Z,125
2016-09-05T08:28:10.498Z,100
2016-09-05T08:29:10.410Z,105
2016-09-05T08:30:11.109Z,175
2016-09-05T08:31:10.396Z,220
2016-09-05T08:32:09.678Z,1140
2016-09-05T08:33:11.102Z,320
2016-09-05T08:34:08.939Z,295
2016-09-05T08:35:10.357Z,295
2016-09-05T08:36:09.637Z,505
2016-09-05T08:37:11.072Z,285
2016-09-05T08:38:10.349Z,325
2016-09-05T08:39:11.019Z,255
2016-09-05T08:40:11.060Z,245
2016-09-05T08:41:10.278Z,220
2016-09-05T08:42:10.289Z,220
2016-09-05T08:43:10.991Z,240
2016-09-05T08:44:11.005Z,275
2016-09-05T08:45:09.590Z,180
2016-09-05T08:46:10.239Z,165
2016-09-05T08:47:09.501Z,155
2016-09-05T08:48:10.209Z,125
2016-09-05T08:49:10.205Z,125
2016-09-05T08:50:10.942Z,125
2016-09-05T08:51:10.190Z,125
2016-09-05T08:52:10.188Z,130
2016-09-05T08:53:10.877Z,120
2016-09-05T08:54:10.860Z,115
2016-09-05T08:55:10.849Z,105
2016-09-05T08:56:10.900Z,95
2016-09-05T08:57:09.396Z,85
2016-09-05T08:58:10.136Z,75
2016-09-05T08:59:09.390Z,65
2016-09-05T09:00:10.081Z,65
2016-09-05T09:01:09.359Z,70
2016-09-05T09:02:10.070Z,70
2016-09-05T09:03:10.058Z,70
2016-09-05T09:04:10.767Z,70
2016-09-05T09:05:09.331Z,75
2016-09-05T09:06:10.006Z,75
2016-09-05T09:07:10.752Z,75
2016-09-05T09:08:10.724Z,80
2016-09-05T09:09:10.710Z,80
2016-09-05T09:10:10.701Z,85
2016-09-05T09:11:10.695Z,85
2016-09-05T09:12:09.965Z,90
2016-09-05T09:13:09.950Z,90
2016-09-05T09:14:09.219Z,100
2016-09-05T09:15:10.659Z,100
2016-09-05T09:16:10.618Z,95
2016-09-05T09:17:09.913Z,100
2016-09-05T09:18:10.620Z,95
2016-09-05T09:19:10.596Z,110
2016-09-05T09:20:10.574Z,140
2016-09-05T09:21:09.858Z,215
2016-09-05T09:22:10.575Z,185
2016-09-05T09:23:10.626Z,210
2016-09-05T09:24:09.098Z,265
2016-09-05T09:25:09.876Z,350
2016-09-05T09:26:10.516Z,295
2016-09-05T09:27:09.866Z,295
2016-09-05T09:28:10.489Z,635
2016-09-05T09:29:09.119Z,455
2016-09-05T09:30:09.033Z,495
2016-09-05T09:31:09.779Z,1105
2016-09-05T09:32:10.466Z,1530
2016-09-05T09:33:10.467Z,535
2016-09-05T09:34:09.031Z,635
2016-09-05T09:35:09.789Z,630
2016-09-05T09:36:08.280Z,1595
2016-09-05T09:37:10.431Z,895
2016-09-05T09:38:10.416Z,830
2016-09-05T09:39:08.971Z,1730
2016-09-05T09:40:08.958Z,450
2016-09-05T09:41:09.655Z,1445
2016-09-05T09:42:10.367Z,1485
2016-09-05T09:43:08.919Z,1555
2016-09-05T09:44:09.635Z,1520
2016-09-05T09:45:08.197Z,1520
2016-09-05T09:46:09.618Z,1345
2016-09-05T09:47:09.609Z,1280
2016-09-05T09:48:09.619Z,515
2016-09-05T09:49:08.169Z,1360
2016-09-05T09:50:10.338Z,900
2016-09-05T09:51:10.320Z,1215
2016-09-05T09:52:10.309Z,1210
2016-09-05T09:53:10.310Z,1110
2016-09-05T09:54:10.320Z,1015
2016-09-05T09:55:09.577Z,835
2016-09-05T09:56:08.910Z,955
2016-09-05T09:57:09.578Z,375
2016-09-05T09:58:10.289Z,290
2016-09-05T09:59:09.569Z,250
2016-09-05T10:00:09.554Z,430
2016-09-05T10:01:09.539Z,1045
2016-09-05T10:02:10.248Z,1045
2016-09-05T10:03:10.247Z,285
2016-09-05T10:04:09.539Z,255
2016-09-05T10:05:10.251Z,870
2016-09-05T10:06:08.877Z,650
2016-09-05T10:07:10.221Z,700
2016-09-05T10:08:09.639Z,340
2016-09-05T10:09:09.512Z,495
2016-09-05T10:10:08.792Z,340
2016-09-05T10:11:10.207Z,335
2016-09-05T10:12:10.219Z,915
2016-09-05T10:13:10.248Z,1005
2016-09-05T10:14:08.850Z,850
2016-09-05T10:15:10.188Z,920
2016-09-05T10:16:09.470Z,540
2016-09-05T10:17:10.192Z,390
2016-09-05T10:18:09.459Z,375
2016-09-05T10:19:09.446Z,300
2016-09-05T10:20:09.509Z,280
2016-09-05T10:21:10.159Z,390
2016-09-05T10:22:09.416Z,445
2016-09-05T10:23:09.396Z,315
2016-09-05T10:24:08.687Z,440
2016-09-05T10:25:10.149Z,425
2016-09-05T10:26:10.110Z,410
2016-09-05T10:27:09.385Z,400
2016-09-05T10:28:07.953Z,420
2016-09-05T10:29:09.371Z,470
2016-09-05T10:30:08.672Z,475
2016-09-05T10:31:09.376Z,540
2016-09-05T10:32:10.122Z,425
2016-09-05T10:33:07.997Z,390
2016-09-05T10:34:09.343Z,330
2016-09-05T10:35:09.355Z,310
2016-09-05T10:36:09.336Z,285
2016-09-05T10:37:09.343Z,245
2016-09-05T10:38:09.330Z,215
2016-09-05T10:39:09.406Z,350
2016-09-05T10:40:09.337Z,370
2016-09-05T10:41:10.047Z,300
2016-09-05T10:42:09.291Z,390
2016-09-05T10:43:09.355Z,240
2016-09-05T10:44:09.407Z,215
2016-09-05T10:45:08.562Z,345
2016-09-05T10:46:09.281Z,260
2016-09-05T10:47:10.018Z,205
2016-09-05T10:48:08.572Z,360
2016-09-05T10:49:10.009Z,370
2016-09-05T10:50:07.815Z,365
2016-09-05T10:51:07.822Z,290
2016-09-05T10:52:08.537Z,245
2016-09-05T10:53:09.232Z,375
2016-09-05T10:54:09.935Z,255
2016-09-05T10:55:09.209Z,260
2016-09-05T10:56:09.209Z,235
2016-09-05T10:57:08.488Z,245
2016-09-05T10:58:09.218Z,320
2016-09-05T10:59:09.930Z,355
2016-09-05T11:00:09.173Z,430
2016-09-05T11:01:08.467Z,435
2016-09-05T11:02:08.446Z,335
2016-09-05T11:03:09.160Z,265
2016-09-05T11:04:09.226Z,225
2016-09-05T11:05:08.436Z,200
2016-09-05T11:06:08.480Z,175
2016-09-05T11:07:09.142Z,165
2016-09-05T11:08:09.835Z,165
2016-09-05T11:09:08.436Z,175
2016-09-05T11:10:08.405Z,185
2016-09-05T11:11:08.388Z,190
2016-09-05T11:12:09.101Z,210
2016-09-05T11:13:08.359Z,305
2016-09-05T11:14:09.109Z,355
2016-09-05T11:15:09.074Z,410
2016-09-05T11:16:09.066Z,410
2016-09-05T11:17:08.356Z,415
2016-09-05T11:18:08.359Z,345
2016-09-05T11:19:09.052Z,325
2016-09-05T11:20:09.038Z,330
2016-09-05T11:21:09.736Z,420
2016-09-05T11:22:09.024Z,320
2016-09-05T11:23:07.650Z,225
2016-09-05T11:24:09.017Z,190
2016-09-05T11:25:08.365Z,175
2016-09-05T11:26:08.288Z,165
2016-09-05T11:27:08.265Z,150
2016-09-05T11:28:08.286Z,145
2016-09-05T11:29:08.269Z,140
2016-09-05T11:30:09.705Z,135
2016-09-05T11:31:08.969Z,135
2016-09-05T11:32:09.675Z,135
2016-09-05T11:33:09.645Z,135
2016-09-05T11:34:09.679Z,135
2016-09-05T11:35:08.914Z,145
2016-09-05T11:36:09.645Z,135
2016-09-05T11:37:09.626Z,135
2016-09-05T11:38:08.928Z,145
2016-09-05T11:39:09.608Z,140
2016-09-05T11:40:08.881Z,140
2016-09-05T11:41:08.179Z,150
2016-09-05T11:42:08.157Z,190
2016-09-05T11:43:08.215Z,170
2016-09-05T11:44:08.849Z,170
2016-09-05T11:45:07.419Z,170
2016-09-05T11:46:08.849Z,170
2016-09-05T11:47:09.547Z,170
2016-09-05T11:48:09.595Z,180
2016-09-05T11:49:09.523Z,185
2016-09-05T11:50:08.799Z,195
2016-09-05T11:51:08.076Z,200
2016-09-05T11:52:08.809Z,205
2016-09-05T11:53:07.371Z,205
2016-09-05T11:54:09.509Z,210
2016-09-05T11:55:08.057Z,210
2016-09-05T11:56:09.479Z,215
2016-09-05T11:57:08.759Z,225
2016-09-05T11:58:08.035Z,275
2016-09-05T11:59:09.462Z,395
2016-09-05T12:01:08.758Z,330
2016-09-05T12:02:07.994Z,285
2016-09-05T12:03:09.417Z,255
2016-09-05T12:04:07.985Z,250
2016-09-05T12:05:08.695Z,250
2016-09-05T12:06:09.390Z,250
2016-09-05T12:07:07.938Z,230
2016-09-05T12:08:07.931Z,220
2016-09-05T12:09:08.661Z,205
2016-09-05T12:10:08.648Z,205
2016-09-05T12:11:07.919Z,200
2016-09-05T12:12:09.350Z,290
2016-09-05T12:13:09.387Z,195
2016-09-05T12:14:07.898Z,190
2016-09-05T12:15:09.360Z,180
2016-09-05T12:16:08.593Z,175
2016-09-05T12:17:09.316Z,165
2016-09-05T12:18:08.590Z,165
2016-09-05T12:19:08.601Z,160
2016-09-05T12:20:08.587Z,160
2016-09-05T12:21:09.267Z,155
2016-09-05T12:22:09.286Z,150
2016-09-05T12:23:08.549Z,150
2016-09-05T12:24:08.558Z,145
2016-09-05T12:25:07.828Z,140
2016-09-05T12:26:07.786Z,140
2016-09-05T12:27:09.259Z,140
2016-09-05T12:28:09.216Z,140
2016-09-05T12:29:08.477Z,140
2016-09-05T12:30:08.492Z,145
2016-09-05T12:31:07.759Z,145
2016-09-05T12:32:09.183Z,140
2016-09-05T12:33:06.714Z,135
2016-09-05T12:34:06.946Z,125
2016-09-05T12:35:07.587Z,115
2016-09-05T12:36:06.914Z,100
2016-09-05T12:37:07.797Z,90
2016-09-05T12:38:07.229Z,80
2016-09-05T12:39:07.537Z,70
2016-09-05T12:40:07.524Z,60
2016-09-05T12:41:06.567Z,50
2016-09-05T12:42:07.209Z,45
2016-09-05T12:43:07.525Z,40
2016-09-05T12:44:07.494Z,40
2016-09-05T12:45:07.521Z,40
2016-09-05T12:46:06.839Z,40
2016-09-05T12:47:07.173Z,40
2016-09-05T12:48:06.833Z,40
2016-09-05T12:49:07.472Z,40
2016-09-05T12:50:07.465Z,40
2016-09-05T12:51:07.107Z,40
2016-09-05T12:52:07.168Z,45
2016-09-05T12:53:06.464Z,45
2016-09-05T12:54:06.466Z,50
2016-09-05T12:55:06.761Z,50
2016-09-05T12:56:06.444Z,55
2016-09-05T12:57:07.059Z,60
2016-09-05T12:58:07.059Z,65
2016-09-05T12:59:07.359Z,70
2016-09-05T13:00:06.715Z,75
2016-09-05T13:01:07.035Z,85
2016-09-05T13:02:07.006Z,90
2016-09-05T13:03:06.366Z,175
2016-09-05T13:04:06.994Z,95
2016-09-05T13:05:06.675Z,95
2016-09-05T13:06:07.307Z,95
2016-09-05T13:07:07.307Z,100
2016-09-05T13:08:07.272Z,105
2016-09-05T13:09:06.318Z,105
2016-09-05T13:10:07.277Z,110
2016-09-05T13:11:06.918Z,110
2016-09-05T13:12:07.238Z,115
2016-09-05T13:13:06.918Z,120
2016-09-05T13:14:06.647Z,120
2016-09-05T13:15:07.215Z,125
2016-09-05T13:16:06.897Z,130
2016-09-05T13:17:07.184Z,130
2016-09-05T13:18:06.856Z,150
2016-09-05T13:19:06.517Z,140
2016-09-05T13:20:06.519Z,135
2016-09-05T13:21:07.142Z,135
2016-09-05T13:22:06.809Z,140
2016-09-05T13:23:07.127Z,155
2016-09-05T13:24:07.154Z,160
2016-09-05T13:25:06.140Z,165
2016-09-05T13:26:06.790Z,190
2016-09-05T13:27:06.781Z,180
2016-09-05T13:28:06.787Z,180
2016-09-05T13:29:07.115Z,190
2016-09-05T13:30:06.770Z,220
2016-09-05T13:31:06.433Z,195
2016-09-05T13:32:07.129Z,270
2016-09-05T13:33:07.057Z,280
2016-09-05T13:34:06.701Z,325
2016-09-05T13:35:07.056Z,310
2016-09-05T13:36:07.017Z,265
2016-09-05T13:37:06.368Z,290
2016-09-05T13:38:07.000Z,235
2016-09-05T13:39:07.045Z,135
2016-09-05T13:40:06.719Z,125
2016-09-05T13:41:06.649Z,115
2016-09-05T13:42:06.640Z,115
2016-09-05T13:43:06.348Z,110
2016-09-05T13:44:06.958Z,120
2016-09-05T13:45:06.296Z,165
2016-09-05T13:46:06.930Z,110
2016-09-05T13:47:06.609Z,105
2016-09-05T13:48:06.920Z,105
2016-09-05T13:49:06.593Z,105
2016-09-05T13:50:06.912Z,105
2016-09-05T13:51:06.906Z,110
2016-09-05T13:52:06.879Z,105
2016-09-05T13:53:06.562Z,105
2016-09-05T13:54:06.593Z,100
2016-09-05T13:55:06.550Z,95
2016-09-05T13:56:06.531Z,85
2016-09-05T13:57:06.524Z,75
2016-09-05T13:58:06.508Z,60
2016-09-05T13:59:06.562Z,50
2016-09-05T14:00:06.498Z,45
2016-09-05T14:01:06.549Z,40
2016-09-05T14:02:06.158Z,35
2016-09-05T14:03:06.148Z,30
2016-09-05T14:04:06.508Z,30
2016-09-05T14:05:06.455Z,30
2016-09-05T14:06:05.786Z,30
2016-09-05T14:07:06.429Z,30
2016-09-05T14:08:06.751Z,30
2016-09-05T14:09:06.406Z,30
2016-09-05T14:10:06.737Z,30
2016-09-05T14:11:06.070Z,30
2016-09-05T14:12:06.760Z,30
2016-09-05T14:13:06.697Z,30